Time;durP1;ratioP1;P1;durP2;ratioP2;P2;SDS_P1;SDS_P2;PMS_P1;PMS_P2;Temp;Humidity;BMP_temperature;BMP_pressure;BME280_temperature;BME280_humidity;BME280_pressure;Samples;Min_cycle;Max_cycle;Signal;HPM_P1;HPM_P2
2024/04/07 00:01:12;;;;;;;2.08;1.42;;;15.90;97.80;;;;;;5095062;28;20228;-59
2024/04/07 00:03:38;;;;;;;2.30;1.40;;;16.00;97.70;;;;;;5094700;28;20763;-59
2024/04/07 00:06:06;;;;;;;1.87;1.53;;;16.00;97.60;;;;;;5095130;28;20204;-60
2024/04/07 00:08:32;;;;;;;2.73;1.60;;;16.00;97.40;;;;;;5094612;28;20669;-59
2024/04/07 00:11:03;;;;;;;3.83;2.20;;;16.00;97.30;;;;;;5094850;28;20203;-60
2024/04/07 00:13:29;;;;;;;2.80;1.60;;;16.00;97.30;;;;;;5094736;28;20242;-59
2024/04/07 00:15:56;;;;;;;2.42;1.48;;;16.00;97.20;;;;;;5094765;28;20204;-59
2024/04/07 00:18:21;;;;;;;2.17;1.35;;;16.10;97.10;;;;;;5094670;28;20251;-61
2024/04/07 00:20:48;;;;;;;3.17;1.50;;;16.20;97.00;;;;;;5094755;28;20220;-60
2024/04/07 00:23:15;;;;;;;2.93;1.50;;;16.10;96.90;;;;;;5094816;28;20607;-59
2024/04/07 00:25:42;;;;;;;2.25;1.80;;;16.20;96.90;;;;;;5086368;28;20215;-59
2024/04/07 00:28:08;;;;;;;5.75;1.50;;;16.30;96.90;;;;;;5094497;28;20215;-59
2024/04/07 00:30:34;;;;;;;4.07;1.50;;;16.30;96.80;;;;;;5094657;28;20204;-59
2024/04/07 00:33:00;;;;;;;4.40;1.50;;;16.30;96.70;;;;;;5094777;28;20228;-59
2024/04/07 00:35:27;;;;;;;3.55;1.70;;;16.40;96.70;;;;;;5094291;28;20665;-59
2024/04/07 00:37:52;;;;;;;3.03;1.50;;;16.40;96.60;;;;;;5094219;28;20283;-59
2024/04/07 00:40:21;;;;;;;4.80;1.37;;;16.40;96.40;;;;;;5094477;28;20231;-59
2024/04/07 00:42:48;;;;;;;3.40;1.50;;;16.40;96.40;;;;;;5094575;28;20224;-59
2024/04/07 00:45:15;;;;;;;3.85;1.50;;;16.30;96.30;;;;;;5094582;28;20298;-59
2024/04/07 00:47:41;;;;;;;1.75;1.33;;;16.30;96.10;;;;;;5094320;28;20208;-59
2024/04/07 00:50:07;;;;;;;2.40;1.20;;;16.40;96.20;;;;;;5093743;28;20234;-59
2024/04/07 00:52:33;;;;;;;3.78;1.48;;;16.40;96.10;;;;;;5093841;28;20293;-59
2024/04/07 00:55:03;;;;;;;3.97;1.27;;;16.40;96.20;;;;;;5094351;28;20654;-59
2024/04/07 00:57:31;;;;;;;2.20;1.35;;;16.30;96.00;;;;;;5093868;28;20268;-59
2024/04/07 00:59:59;;;;;;;2.28;1.15;;;16.40;96.00;;;;;;5092081;28;20705;-59
2024/04/07 01:02:24;;;;;;;6.15;1.30;;;16.40;96.00;;;;;;5093735;28;20650;-60
2024/04/07 01:04:51;;;;;;;3.10;1.50;;;16.40;96.00;;;;;;5094097;28;20241;-60
2024/04/07 01:07:17;;;;;;;2.33;1.27;;;16.30;95.90;;;;;;5094096;28;20205;-60
2024/04/07 01:09:43;;;;;;;2.58;1.20;;;16.30;95.80;;;;;;5085667;28;20680;-60
2024/04/07 01:12:25;;;;;;;2.80;1.50;;;16.40;95.70;;;;;;5093584;28;20629;-60
2024/04/07 01:14:52;;;;;;;1.95;1.48;;;16.30;95.70;;;;;;5086774;28;20269;-60
2024/04/07 01:17:19;;;;;;;2.75;1.45;;;16.30;95.70;;;;;;5093603;28;20211;-59
2024/04/07 01:19:45;;;;;;;6.28;1.27;;;16.40;95.40;;;;;;5093306;28;20216;-60
2024/04/07 01:22:13;;;;;;;2.47;1.35;;;16.40;95.20;;;;;;5093515;28;20224;-60
2024/04/07 01:24:40;;;;;;;4.32;1.30;;;16.50;95.30;;;;;;5093227;28;20204;-60
2024/04/07 01:27:07;;;;;;;2.00;1.33;;;16.40;95.20;;;;;;5093569;28;20207;-59
2024/04/07 01:29:32;;;;;;;2.47;1.38;;;16.50;95.10;;;;;;5093181;28;20207;-60
2024/04/07 01:31:59;;;;;;;1.58;1.00;;;16.50;95.00;;;;;;5093346;28;20220;-60
2024/04/07 01:34:25;;;;;;;1.20;1.10;;;16.50;95.00;;;;;;5093065;28;20692;-60
2024/04/07 01:36:51;;;;;;;1.83;1.00;;;16.60;94.80;;;;;;5093246;28;20215;-60
2024/04/07 01:39:17;;;;;;;2.97;1.17;;;16.60;94.70;;;;;;5092948;28;20231;-60
2024/04/07 01:41:45;;;;;;;2.63;1.20;;;16.70;94.60;;;;;;5084742;28;20201;-59
2024/04/07 01:44:12;;;;;;;3.13;1.30;;;16.60;94.60;;;;;;5092770;28;20555;-60
2024/04/07 01:46:38;;;;;;;1.88;1.23;;;16.70;94.60;;;;;;5092975;28;20228;-60
2024/04/07 01:49:04;;;;;;;1.85;1.25;;;16.70;94.50;;;;;;5092659;28;20674;-59
2024/04/07 01:51:31;;;;;;;3.58;1.20;;;16.80;94.30;;;;;;5093052;28;20249;-60
2024/04/07 01:53:56;;;;;;;2.53;1.02;;;16.80;94.20;;;;;;5092775;28;20244;-60
2024/04/07 01:56:23;;;;;;;1.58;1.10;;;16.90;94.30;;;;;;5093531;28;20661;-60
2024/04/07 01:58:50;;;;;;;2.03;0.98;;;16.90;94.40;;;;;;5092844;28;20211;-60
2024/04/07 02:01:17;;;;;;;1.60;1.20;;;16.90;94.30;;;;;;5092713;28;20220;-60
2024/04/07 02:03:42;;;;;;;1.95;1.42;;;16.90;94.60;;;;;;5092629;28;20267;-60
2024/04/07 02:06:09;;;;;;;1.85;1.38;;;16.90;95.60;;;;;;5092681;28;20231;-59
2024/04/07 02:08:35;;;;;;;2.05;1.55;;;16.80;96.30;;;;;;5092378;28;20208;-59
2024/04/07 02:11:03;;;;;;;7.13;1.88;;;16.70;97.00;;;;;;5092475;28;20204;-59
2024/04/07 02:13:28;;;;;;;2.20;1.85;;;16.50;97.60;;;;;;5092735;28;20308;-60
2024/04/07 02:16:00;;;;;;;4.13;1.60;;;16.50;98.30;;;;;;5092572;28;20280;-60
2024/04/07 02:18:26;;;;;;;3.50;1.67;;;16.30;98.50;;;;;;5092205;28;20204;-59
2024/04/07 02:20:53;;;;;;;3.83;1.60;;;16.20;98.60;;;;;;5092450;28;20709;-60
2024/04/07 02:23:19;;;;;;;3.55;1.60;;;16.00;98.60;;;;;;5092761;28;20239;-60
2024/04/07 02:25:47;;;;;;;2.00;1.55;;;15.90;99.00;;;;;;5084531;28;20507;-60
2024/04/07 02:28:13;;;;;;;4.67;1.70;;;15.80;99.00;;;;;;5092108;28;20204;-60
2024/04/07 02:30:40;;;;;;;3.25;1.60;;;15.80;99.10;;;;;;5092215;28;20246;-60
2024/04/07 02:33:08;;;;;;;3.00;1.50;;;15.70;99.10;;;;;;5092050;28;20706;-60
2024/04/07 02:35:35;;;;;;;1.73;1.50;;;15.70;98.80;;;;;;5092045;28;20208;-60
2024/04/07 02:38:01;;;;;;;2.05;1.58;;;15.70;98.80;;;;;;5092073;28;20208;-60
2024/04/07 02:40:28;;;;;;;2.17;1.70;;;15.70;98.70;;;;;;5092222;28;20223;-60
2024/04/07 02:42:54;;;;;;;3.20;1.70;;;15.80;98.60;;;;;;5092169;28;20227;-59
2024/04/07 02:48:06;;;;;;;8.75;5.80;;;15.80;98.80;;;;;;5091953;28;20207;-60
2024/04/07 02:50:35;;;;;;;8.02;6.38;;;15.70;99.20;;;;;;5091854;28;20747;-60
2024/04/07 02:53:02;;;;;;;3.70;2.90;;;15.70;99.20;;;;;;5091756;28;20286;-60
2024/04/07 02:55:29;;;;;;;4.27;2.10;;;15.60;99.90;;;;;;5092133;28;20203;-59
2024/04/07 02:57:55;;;;;;;5.13;2.67;;;15.60;99.90;;;;;;5091648;28;20223;-60
2024/04/07 03:00:21;;;;;;;7.60;3.57;;;15.60;99.90;;;;;;5091559;28;20749;-60
2024/04/07 03:02:48;;;;;;;3.60;2.17;;;15.60;99.90;;;;;;5092307;28;20297;-60
2024/04/07 03:05:17;;;;;;;3.70;1.92;;;15.60;99.90;;;;;;5091601;28;20577;-60
2024/04/07 03:07:44;;;;;;;2.17;1.65;;;15.60;99.90;;;;;;5091590;28;20648;-60
2024/04/07 03:10:11;;;;;;;1.55;1.38;;;15.50;99.90;;;;;;5091581;28;20204;-60
2024/04/07 03:12:37;;;;;;;1.65;1.30;;;15.40;99.90;;;;;;5091577;28;20219;-60
2024/04/07 03:15:04;;;;;;;2.97;1.23;;;15.30;99.90;;;;;;5091507;28;20192;-58
2024/04/07 03:17:31;;;;;;;2.77;1.53;;;15.30;99.90;;;;;;5091480;28;20213;-60
2024/04/07 03:19:57;;;;;;;1.83;1.40;;;15.20;99.90;;;;;;5091577;28;20261;-58
2024/04/07 03:22:23;;;;;;;2.92;1.20;;;15.20;99.90;;;;;;5092200;28;20269;-58
2024/04/07 03:24:52;;;;;;;2.10;1.15;;;15.10;99.90;;;;;;5096237;28;20196;-58
2024/04/07 03:27:17;;;;;;;2.40;1.20;;;15.00;99.90;;;;;;5096046;28;20196;-58
2024/04/07 03:29:44;;;;;;;3.90;1.80;;;15.10;99.90;;;;;;5095451;28;20204;-58
2024/04/07 03:32:10;;;;;;;4.47;1.50;;;15.00;99.90;;;;;;5095976;28;20220;-58
2024/04/07 03:34:36;;;;;;;2.92;1.17;;;14.90;99.90;;;;;;5095727;28;20694;-58
2024/04/07 03:37:04;;;;;;;2.57;1.50;;;14.90;99.90;;;;;;5095546;28;20208;-58
2024/04/07 03:39:31;;;;;;;4.60;1.70;;;15.00;99.90;;;;;;5094576;28;20204;-58
2024/04/07 03:41:59;;;;;;;3.13;1.10;;;14.90;99.90;;;;;;5094001;28;20272;-58
2024/04/07 03:44:26;;;;;;;4.57;1.30;;;14.90;99.90;;;;;;5093729;28;20207;-59
2024/04/07 03:46:53;;;;;;;2.22;1.40;;;14.90;99.90;;;;;;5093514;28;20565;-58
2024/04/07 03:49:20;;;;;;;6.73;1.80;;;14.90;99.90;;;;;;5093378;28;20200;-58
2024/04/07 03:51:47;;;;;;;1.97;1.60;;;14.80;99.90;;;;;;5093411;28;20583;-58
2024/04/07 03:54:12;;;;;;;1.63;1.43;;;14.70;99.90;;;;;;5095139;28;20223;-58
2024/04/07 03:56:39;;;;;;;2.50;1.33;;;14.70;99.90;;;;;;5095294;28;20205;-58
2024/04/07 03:59:06;;;;;;;2.13;1.60;;;14.60;99.90;;;;;;5094900;28;20730;-58
2024/04/07 04:01:34;;;;;;;3.33;1.47;;;14.50;99.90;;;;;;5095141;28;20220;-58
2024/04/07 04:04:00;;;;;;;5.43;1.80;;;14.40;99.90;;;;;;5095035;28;20317;-58
2024/04/07 04:06:26;;;;;;;2.97;1.40;;;14.40;99.90;;;;;;5095149;28;20279;-57
2024/04/07 04:08:52;;;;;;;3.90;2.00;;;14.40;99.90;;;;;;5094863;28;20232;-58
2024/04/07 04:11:19;;;;;;;2.10;1.57;;;14.30;99.90;;;;;;5094858;28;20231;-58
2024/04/07 04:13:49;;;;;;;1.90;1.30;;;14.10;99.90;;;;;;5094958;28;20217;-58
2024/04/07 04:16:17;;;;;;;1.93;1.43;;;14.10;99.90;;;;;;5095356;28;20207;-59
2024/04/07 04:18:43;;;;;;;2.90;1.30;;;14.10;99.90;;;;;;5095142;28;20216;-58
2024/04/07 04:21:10;;;;;;;4.73;1.93;;;14.20;99.90;;;;;;5094936;28;20728;-59
2024/04/07 04:23:36;;;;;;;4.50;2.07;;;14.00;99.90;;;;;;5094612;28;20318;-59
2024/04/07 04:26:03;;;;;;;2.87;2.13;;;13.90;99.90;;;;;;5094909;28;20250;-59
2024/04/07 04:28:29;;;;;;;3.77;2.30;;;13.90;99.90;;;;;;5094471;28;20204;-58
2024/04/07 04:30:59;;;;;;;5.27;2.03;;;13.90;99.90;;;;;;5094762;28;20257;-59
2024/04/07 04:33:27;;;;;;;6.33;2.40;;;13.90;99.90;;;;;;5094157;28;20216;-59
2024/04/07 04:35:54;;;;;;;3.27;2.33;;;13.80;99.90;;;;;;5094598;28;20227;-59
2024/04/07 04:38:20;;;;;;;2.17;1.97;;;13.80;99.90;;;;;;5094182;28;20228;-59
2024/04/07 04:40:53;;;;;;;3.77;1.90;;;13.90;99.90;;;;;;5094396;28;20710;-59
2024/04/07 04:43:19;;;;;;;3.90;2.10;;;13.90;99.90;;;;;;5094365;28;20311;-59
2024/04/07 04:45:46;;;;;;;3.43;2.10;;;13.90;99.90;;;;;;5094174;28;20283;-59
2024/04/07 04:48:12;;;;;;;3.37;2.10;;;14.00;99.90;;;;;;5094036;28;20508;-58
2024/04/07 04:50:40;;;;;;;3.47;2.10;;;14.00;99.90;;;;;;5094113;28;20267;-58
2024/04/07 04:53:06;;;;;;;3.77;2.40;;;14.10;99.90;;;;;;5093214;28;20234;-59
2024/04/07 04:55:32;;;;;;;3.30;2.30;;;14.10;99.90;;;;;;5093240;28;20219;-59
2024/04/07 04:57:58;;;;;;;4.83;2.57;;;14.10;99.90;;;;;;5092800;28;20211;-61
2024/04/07 05:00:27;;;;;;;6.37;2.13;;;14.20;99.90;;;;;;5092886;28;20231;-58
2024/04/07 05:02:53;;;;;;;5.87;2.27;;;14.20;99.90;;;;;;5093008;28;20307;-59
2024/04/07 05:05:19;;;;;;;5.03;2.50;;;14.20;99.90;;;;;;5093103;28;20621;-59
2024/04/07 05:07:47;;;;;;;5.20;2.83;;;14.20;99.90;;;;;;5092951;28;20245;-59
2024/04/07 05:10:14;;;;;;;4.27;2.63;;;14.20;99.90;;;;;;5092845;28;20642;-59
2024/04/07 05:12:40;;;;;;;4.87;2.60;;;14.10;99.90;;;;;;5092934;28;20258;-61
2024/04/07 05:15:07;;;;;;;4.13;2.50;;;14.10;99.90;;;;;;5093131;28;20607;-59
2024/04/07 05:17:33;;;;;;;5.17;2.13;;;14.20;99.90;;;;;;5092745;28;20234;-59
2024/04/07 05:20:00;;;;;;;2.67;2.00;;;14.20;99.90;;;;;;5092247;28;20200;-59
2024/04/07 05:22:26;;;;;;;3.90;2.60;;;14.20;99.90;;;;;;5092581;28;20224;-59
2024/04/07 05:24:54;;;;;;;4.60;2.13;;;14.20;99.90;;;;;;5092695;28;20199;-59
2024/04/07 05:27:20;;;;;;;6.33;2.70;;;14.30;99.90;;;;;;5092596;28;20207;-60
2024/04/07 05:29:48;;;;;;;6.17;3.10;;;14.30;99.90;;;;;;5092237;28;20211;-60
2024/04/07 05:32:14;;;;;;;5.90;3.20;;;14.40;99.90;;;;;;5092080;28;20226;-59
2024/04/07 05:34:40;;;;;;;5.27;3.03;;;14.40;99.90;;;;;;5092137;28;20205;-60
2024/04/07 05:37:06;;;;;;;4.97;2.10;;;14.50;99.90;;;;;;5092257;28;20336;-59
2024/04/07 05:39:33;;;;;;;3.57;1.77;;;14.40;99.90;;;;;;5092295;28;20204;-60
2024/04/07 05:42:00;;;;;;;3.17;1.83;;;14.30;99.90;;;;;;5092150;28;20317;-59
2024/04/07 05:44:27;;;;;;;4.53;2.07;;;14.20;99.90;;;;;;5092107;28;20287;-59
2024/04/07 05:46:53;;;;;;;5.13;2.10;;;14.20;99.90;;;;;;5091475;28;20587;-59
2024/04/07 05:49:19;;;;;;;7.53;2.27;;;14.20;99.90;;;;;;5091780;28;20197;-59
2024/04/07 05:51:45;;;;;;;4.63;2.00;;;14.30;99.90;;;;;;5054237;28;1069383;-60
2024/04/07 05:54:12;;;;;;;5.93;2.33;;;14.40;99.90;;;;;;5093047;28;20203;-58
2024/04/07 05:56:37;;;;;;;3.00;2.03;;;14.50;99.90;;;;;;5093003;28;20200;-58
2024/04/07 05:59:05;;;;;;;5.10;2.50;;;14.70;99.90;;;;;;5092679;28;20196;-58
2024/04/07 06:01:31;;;;;;;3.33;2.30;;;14.90;99.90;;;;;;5092650;28;20216;-59
2024/04/07 06:03:58;;;;;;;7.83;4.90;;;15.10;99.90;;;;;;5093287;28;20222;-59
2024/04/07 06:06:23;;;;;;;6.03;2.83;;;15.20;99.90;;;;;;5092906;28;20196;-60
2024/04/07 06:08:50;;;;;;;3.87;2.10;;;15.40;99.90;;;;;;5092460;28;20203;-59
2024/04/07 06:11:16;;;;;;;4.00;1.90;;;15.50;99.90;;;;;;5092507;28;20803;-59
2024/04/07 06:13:42;;;;;;;3.50;2.00;;;15.60;99.90;;;;;;5092517;28;20257;-59
2024/04/07 06:16:09;;;;;;;5.47;1.80;;;15.70;99.90;;;;;;5093078;28;20208;-59
2024/04/07 06:18:37;;;;;;;7.00;2.15;;;15.80;99.90;;;;;;5092257;28;20200;-59
2024/04/07 06:21:07;;;;;;;5.13;2.03;;;15.80;99.90;;;;;;5092486;28;20701;-59
2024/04/07 06:23:33;;;;;;;3.70;2.13;;;15.90;99.90;;;;;;5092244;28;20252;-60
2024/04/07 06:25:59;;;;;;;4.18;2.20;;;15.90;99.90;;;;;;5092574;28;20200;-59
2024/04/07 06:28:26;;;;;;;4.07;2.28;;;15.80;99.90;;;;;;5092107;28;20197;-59
2024/04/07 06:30:51;;;;;;;5.28;2.40;;;15.80;99.90;;;;;;5083843;28;20246;-59
2024/04/07 06:33:21;;;;;;;3.22;2.10;;;16.00;99.90;;;;;;5092384;28;20220;-59
2024/04/07 06:35:46;;;;;;;12.65;6.35;;;16.20;99.90;;;;;;5092188;28;20204;-60
2024/04/07 06:38:13;;;;;;;3.47;2.35;;;16.40;99.90;;;;;;5092166;28;20200;-59
2024/04/07 06:40:39;;;;;;;4.35;3.28;;;16.70;99.90;;;;;;5091969;28;20220;-59
2024/04/07 06:43:06;;;;;;;4.68;2.83;;;17.20;99.90;;;;;;5092112;28;20216;-60
2024/04/07 06:45:31;;;;;;;6.28;2.53;;;18.20;99.90;;;;;;5091590;28;20208;-60
2024/04/07 06:47:58;;;;;;;6.05;2.78;;;19.00;99.90;;;;;;5091906;28;20576;-60
2024/04/07 06:50:25;;;;;;;4.10;3.10;;;19.80;99.40;;;;;;5091988;28;20207;-60
2024/04/07 06:52:52;;;;;;;3.72;2.85;;;20.20;98.70;;;;;;5091806;28;20238;-60
2024/04/07 06:55:19;;;;;;;3.33;2.30;;;20.30;98.60;;;;;;5091919;28;20211;-60
2024/04/07 06:57:46;;;;;;;4.72;2.30;;;20.20;98.20;;;;;;5091985;28;20662;-60
2024/04/07 07:00:12;;;;;;;6.20;2.78;;;20.20;98.30;;;;;;5091710;28;20264;-61
2024/04/07 07:02:39;;;;;;;6.40;3.05;;;20.10;98.10;;;;;;5091547;28;20272;-58
2024/04/07 07:05:05;;;;;;;6.40;3.60;;;20.00;98.10;;;;;;5092079;28;20196;-60
2024/04/07 07:07:33;;;;;;;5.32;3.15;;;19.80;98.50;;;;;;5091761;28;20196;-60
2024/04/07 07:09:59;;;;;;;8.52;3.80;;;19.60;99.00;;;;;;5091433;28;20670;-59
2024/04/07 07:12:29;;;;;;;5.47;3.50;;;19.50;99.30;;;;;;5091469;28;20214;-59
2024/04/07 07:14:54;;;;;;;5.18;3.50;;;19.60;99.40;;;;;;5083193;28;20200;-60
2024/04/07 07:17:21;;;;;;;6.72;3.70;;;19.80;99.40;;;;;;5091642;28;20581;-60
2024/04/07 07:19:47;;;;;;;10.60;3.67;;;20.10;99.20;;;;;;5091317;28;20257;-59
2024/04/07 07:22:13;;;;;;;7.65;3.30;;;20.60;98.80;;;;;;5091227;28;20228;-60
2024/04/07 07:24:40;;;;;;;5.95;2.70;;;21.00;98.20;;;;;;5091337;28;20204;-60
2024/04/07 07:27:07;;;;;;;7.90;3.05;;;21.30;97.50;;;;;;5091520;28;20208;-60
2024/04/07 07:29:34;;;;;;;29.45;24.15;;;21.60;96.80;;;;;;5091177;28;20208;-60
2024/04/07 07:32:00;;;;;;;6.22;2.95;;;21.70;96.70;;;;;;5091538;28;20216;-61
2024/04/07 07:34:27;;;;;;;6.22;2.38;;;22.00;96.00;;;;;;5091514;28;20196;-61
2024/04/07 07:36:53;;;;;;;5.18;2.15;;;22.20;95.80;;;;;;5091474;28;20204;-61
2024/04/07 07:39:20;;;;;;;6.10;2.90;;;22.50;95.10;;;;;;5091164;28;20661;-61
2024/04/07 07:41:47;;;;;;;7.03;2.97;;;22.70;94.20;;;;;;5091106;28;20227;-61
2024/04/07 07:44:14;;;;;;;9.80;2.17;;;22.80;93.80;;;;;;5091459;28;20208;-61
2024/04/07 07:46:39;;;;;;;11.68;7.13;;;22.90;92.70;;;;;;5091341;28;20211;-60
2024/04/07 07:49:06;;;;;;;6.97;3.05;;;23.00;92.20;;;;;;5091143;28;20608;-60
2024/04/07 07:51:32;;;;;;;5.78;2.22;;;23.10;92.20;;;;;;5091184;28;20228;-61
2024/04/07 07:53:59;;;;;;;6.65;1.90;;;23.20;91.10;;;;;;5091097;28;20243;-61
2024/04/07 07:56:25;;;;;;;5.25;2.20;;;23.30;90.90;;;;;;5091393;28;20204;-61
2024/04/07 07:58:53;;;;;;;4.97;1.85;;;23.40;91.20;;;;;;5091420;28;20711;-61
2024/04/07 08:01:18;;;;;;;7.18;1.80;;;23.70;90.30;;;;;;5091231;28;20238;-62
2024/04/07 08:03:45;;;;;;;5.40;1.85;;;24.10;90.00;;;;;;5091258;28;20573;-62
2024/04/07 08:06:11;;;;;;;5.93;2.10;;;24.50;88.50;;;;;;5091659;28;20229;-61
2024/04/07 08:08:37;;;;;;;10.88;2.40;;;25.10;87.40;;;;;;5091386;28;20564;-61
2024/04/07 08:11:03;;;;;;;6.07;2.05;;;25.70;86.50;;;;;;5095008;28;20197;-61
2024/04/07 08:13:30;;;;;;;5.45;2.00;;;26.10;85.40;;;;;;5095309;28;20638;-62
2024/04/07 08:15:58;;;;;;;5.57;2.40;;;26.10;84.30;;;;;;5086955;28;20200;-62
2024/04/07 08:18:25;;;;;;;6.53;2.20;;;26.10;85.00;;;;;;5094950;28;20226;-62
2024/04/07 08:20:52;;;;;;;6.25;2.38;;;26.00;85.50;;;;;;5094740;28;20228;-62
2024/04/07 08:23:19;;;;;;;8.35;4.10;;;26.10;86.00;;;;;;5094724;28;20377;-62
2024/04/07 08:25:45;;;;;;;9.40;2.10;;;26.20;85.80;;;;;;5095219;28;20232;-63
2024/04/07 08:28:12;;;;;;;6.53;2.63;;;26.30;85.50;;;;;;5095079;28;20295;-63
2024/04/07 08:30:39;;;;;;;4.30;2.28;;;26.30;86.80;;;;;;5095277;28;20200;-62
2024/04/07 08:33:07;;;;;;;10.25;2.28;;;26.30;86.50;;;;;;5094739;28;20314;-63
2024/04/07 08:35:33;;;;;;;4.15;2.13;;;26.30;85.90;;;;;;5094604;28;20212;-62
2024/04/07 08:37:59;;;;;;;9.23;2.10;;;26.30;86.10;;;;;;5093976;28;20203;-63
2024/04/07 08:40:25;;;;;;;4.82;2.88;;;26.20;87.10;;;;;;5094152;28;20205;-63
2024/04/07 08:42:53;;;;;;;5.25;1.80;;;26.00;87.50;;;;;;5093978;28;20224;-62
2024/04/07 08:45:21;;;;;;;6.38;2.30;;;25.70;88.70;;;;;;5094268;28;20669;-62
2024/04/07 08:47:48;;;;;;;6.43;1.85;;;25.50;89.50;;;;;;5094083;28;20665;-62
2024/04/07 08:50:16;;;;;;;7.32;1.80;;;25.50;89.70;;;;;;5094506;28;20208;-62
2024/04/07 08:52:44;;;;;;;7.22;1.80;;;25.50;89.20;;;;;;5093701;28;20868;-63
2024/04/07 08:55:10;;;;;;;4.75;1.90;;;25.60;89.80;;;;;;5094432;28;20203;-63
2024/04/07 08:57:39;;;;;;;6.95;2.58;;;25.70;88.70;;;;;;5094023;28;20196;-62
2024/04/07 09:00:08;;;;;;;6.40;2.70;;;25.70;89.40;;;;;;5093725;28;20560;-62
2024/04/07 09:02:36;;;;;;;7.03;1.77;;;25.60;90.10;;;;;;5093841;28;20231;-62
2024/04/07 09:05:03;;;;;;;7.85;1.80;;;25.60;90.00;;;;;;5093807;28;20204;-62
2024/04/07 09:07:32;;;;;;;5.00;2.30;;;25.50;90.20;;;;;;5094289;28;20200;-62
2024/04/07 09:09:57;;;;;;;5.20;1.75;;;25.50;90.20;;;;;;5093918;28;20228;-63
2024/04/07 09:12:24;;;;;;;13.70;2.63;;;25.50;90.00;;;;;;5093705;28;20651;-63
2024/04/07 09:14:50;;;;;;;22.40;17.65;;;25.40;90.30;;;;;;5093711;28;20211;-63
2024/04/07 09:17:17;;;;;;;4.70;1.98;;;25.40;90.60;;;;;;5093747;28;20200;-63
2024/04/07 09:19:42;;;;;;;7.78;2.00;;;25.40;90.10;;;;;;5092997;28;20678;-64
2024/04/07 09:22:09;;;;;;;6.40;2.05;;;25.50;89.80;;;;;;5092856;28;20220;-66
2024/04/07 09:24:38;;;;;;;5.38;2.20;;;25.60;89.60;;;;;;5093586;28;20208;-61
2024/04/07 09:27:09;;;;;;;6.95;2.15;;;25.70;89.60;;;;;;5093717;28;20207;-61
2024/04/07 09:29:35;;;;;;;6.97;2.08;;;26.00;88.80;;;;;;5093137;28;20204;-61
2024/04/07 09:32:02;;;;;;;6.93;2.15;;;26.20;87.40;;;;;;5093384;28;20212;-61
2024/04/07 09:34:31;;;;;;;4.90;1.80;;;26.40;87.00;;;;;;5093468;28;20204;-61
2024/04/07 09:36:59;;;;;;;6.20;1.90;;;26.60;86.70;;;;;;5085105;28;20203;-61
2024/04/07 09:39:26;;;;;;;6.97;1.50;;;26.60;86.60;;;;;;5093226;28;20207;-61
2024/04/07 09:41:55;;;;;;;7.70;1.50;;;26.60;86.40;;;;;;5092792;28;20219;-61
2024/04/07 09:44:21;;;;;;;6.18;1.83;;;26.60;87.20;;;;;;5092872;28;20209;-61
2024/04/07 09:46:48;;;;;;;7.60;1.90;;;26.60;87.20;;;;;;5093104;28;20200;-63
2024/04/07 09:49:15;;;;;;;7.72;1.80;;;26.70;87.20;;;;;;5093341;28;20204;-63
2024/04/07 09:51:43;;;;;;;5.15;2.05;;;26.80;85.90;;;;;;5092931;28;20200;-61
2024/04/07 09:54:18;;;;;;;5.05;2.42;;;27.00;86.20;;;;;;5093409;28;20201;-62
2024/04/07 09:56:46;;;;;;;7.85;1.67;;;27.10;84.80;;;;;;5092816;28;20231;-62
2024/04/07 09:59:14;;;;;;;6.07;1.90;;;27.20;84.20;;;;;;5092804;28;20208;-62
2024/04/07 10:01:41;;;;;;;7.15;2.10;;;27.00;83.90;;;;;;5092788;28;20305;-62
2024/04/07 10:04:09;;;;;;;4.80;1.90;;;26.90;84.40;;;;;;5092948;28;20200;-62
2024/04/07 10:06:36;;;;;;;7.30;1.95;;;26.80;85.50;;;;;;5092689;28;20224;-63
2024/04/07 10:09:03;;;;;;;11.23;2.65;;;26.90;84.60;;;;;;5092560;28;20200;-62
2024/04/07 10:11:29;;;;;;;11.63;3.28;;;27.10;83.80;;;;;;5092732;28;20659;-64
2024/04/07 10:13:55;;;;;;;10.10;2.47;;;27.30;83.40;;;;;;5092592;28;20220;-64
2024/04/07 10:16:25;;;;;;;5.57;1.48;;;27.50;84.50;;;;;;5092833;28;20582;-64
2024/04/07 10:18:51;;;;;;;4.93;2.10;;;27.50;84.10;;;;;;5092544;28;20200;-63
2024/04/07 10:21:18;;;;;;;3.78;1.95;;;27.50;83.60;;;;;;5092616;28;20216;-64
2024/04/07 10:23:44;;;;;;;7.47;1.85;;;27.10;84.80;;;;;;5092244;28;20224;-64
2024/04/07 10:26:11;;;;;;;7.35;1.70;;;26.70;86.40;;;;;;5092277;28;20258;-64
2024/04/07 10:28:53;;;;;;;7.63;1.73;;;26.50;85.00;;;;;;5092421;28;20211;-64
2024/04/07 10:31:25;;;;;;;7.35;2.22;;;26.10;85.80;;;;;;5092886;28;20333;-63
2024/04/07 10:33:52;;;;;;;6.55;2.47;;;25.60;87.30;;;;;;5092266;28;20231;-63
2024/04/07 10:36:20;;;;;;;8.15;1.83;;;25.40;87.50;;;;;;5092220;28;20727;-63
2024/04/07 10:38:48;;;;;;;4.82;1.52;;;25.10;88.50;;;;;;5091793;28;20239;-63
2024/04/07 10:41:17;;;;;;;6.18;1.65;;;24.80;89.80;;;;;;5092330;28;20230;-63
2024/04/07 10:43:44;;;;;;;6.22;1.50;;;24.80;89.80;;;;;;5091611;28;20315;-63
2024/04/07 10:46:11;;;;;;;6.95;2.67;;;24.90;90.00;;;;;;5092048;28;20283;-63
2024/04/07 10:49:32;;;;;;;4.72;1.85;;;25.10;89.40;;;;;;5092049;28;20208;-63
2024/04/07 10:52:00;;;;;;;3.83;1.40;;;25.40;87.70;;;;;;5091078;28;20228;-63
2024/04/07 10:54:27;;;;;;;5.10;2.30;;;25.60;86.80;;;;;;5092448;28;20196;-63
2024/04/07 10:56:53;;;;;;;6.22;2.22;;;25.50;88.10;;;;;;5092362;28;20196;-66
2024/04/07 10:59:19;;;;;;;8.27;3.20;;;25.60;88.20;;;;;;5092077;28;20204;-63
2024/04/07 11:01:46;;;;;;;7.43;4.30;;;25.80;88.00;;;;;;5091709;28;20352;-63
2024/04/07 11:04:11;;;;;;;13.30;7.07;;;26.00;86.90;;;;;;5091828;28;20204;-63
2024/04/07 11:06:38;;;;;;;8.40;3.55;;;26.20;86.90;;;;;;5091743;28;20550;-62
2024/04/07 11:09:06;;;;;;;7.30;4.28;;;26.50;86.90;;;;;;5092084;28;20564;-63
2024/04/07 11:11:32;;;;;;;12.77;7.07;;;26.80;85.90;;;;;;5091857;28;20192;-63
2024/04/07 11:13:58;;;;;;;6.90;2.72;;;27.00;85.10;;;;;;5092006;28;20258;-63
2024/04/07 11:16:25;;;;;;;5.43;2.80;;;27.30;82.70;;;;;;5091923;28;20202;-63
2024/04/07 11:18:51;;;;;;;5.32;2.53;;;27.50;82.70;;;;;;5091356;28;20625;-63
2024/04/07 11:21:19;;;;;;;8.77;2.60;;;27.70;82.00;;;;;;5091762;28;20199;-63
2024/04/07 11:23:45;;;;;;;6.43;2.05;;;27.70;80.10;;;;;;5091626;28;20410;-63
2024/04/07 11:26:13;;;;;;;6.38;1.70;;;27.70;79.00;;;;;;5091944;28;20290;-63
2024/04/07 11:28:39;;;;;;;5.13;1.70;;;27.40;79.70;;;;;;5091528;28;20200;-64
2024/04/07 11:31:09;;;;;;;7.88;2.05;;;27.20;80.30;;;;;;5091790;28;20681;-63
2024/04/07 11:33:35;;;;;;;5.53;1.98;;;26.90;81.20;;;;;;5091621;28;20219;-63
2024/04/07 11:36:02;;;;;;;7.50;2.10;;;26.50;81.20;;;;;;5083321;28;20200;-63
2024/04/07 11:38:29;;;;;;;3.53;1.58;;;26.30;82.30;;;;;;5091527;28;20295;-63
2024/04/07 11:40:56;;;;;;;5.80;2.45;;;26.30;82.00;;;;;;5091557;28;20204;-63
2024/04/07 11:43:23;;;;;;;8.30;1.92;;;26.50;82.90;;;;;;5091254;28;20600;-63
2024/04/07 11:45:53;;;;;;;7.22;1.88;;;26.80;81.90;;;;;;5095510;28;20214;-63
2024/04/07 11:48:19;;;;;;;13.43;1.55;;;27.10;79.80;;;;;;5095259;28;20202;-63
2024/04/07 11:50:46;;;;;;;6.13;1.98;;;27.10;80.00;;;;;;5095572;28;20207;-63
2024/04/07 11:53:12;;;;;;;6.43;1.70;;;27.10;80.00;;;;;;5095360;28;20227;-62
2024/04/07 11:55:38;;;;;;;7.22;1.90;;;27.10;80.60;;;;;;5095611;28;20196;-62
2024/04/07 11:58:04;;;;;;;4.40;2.10;;;27.20;80.50;;;;;;5095723;28;20204;-61
2024/04/07 12:00:32;;;;;;;6.35;1.80;;;27.40;79.90;;;;;;5095721;28;20200;-61
2024/04/07 12:02:58;;;;;;;7.15;1.90;;;27.60;79.30;;;;;;5095320;28;20224;-61
2024/04/07 12:05:25;;;;;;;9.55;1.85;;;27.80;78.80;;;;;;5095489;28;20196;-62
2024/04/07 12:07:50;;;;;;;6.30;1.80;;;28.00;78.30;;;;;;5095248;28;20238;-62
2024/04/07 12:10:17;;;;;;;5.50;1.85;;;28.10;77.20;;;;;;5095251;28;20196;-63
2024/04/07 12:12:43;;;;;;;7.78;1.70;;;27.90;77.50;;;;;;5095078;28;20224;-63
2024/04/07 12:15:10;;;;;;;5.05;1.67;;;27.50;78.40;;;;;;5095175;28;20199;-63
2024/04/07 12:17:37;;;;;;;5.18;1.63;;;27.30;78.70;;;;;;5095019;28;20666;-64
2024/04/07 12:20:04;;;;;;;8.32;1.85;;;27.20;79.70;;;;;;5095003;28;20200;-63
2024/04/07 12:22:35;;;;;;;5.68;1.85;;;27.10;79.30;;;;;;5094898;28;20224;-64
2024/04/07 12:25:02;;;;;;;6.80;1.80;;;26.80;80.00;;;;;;5094658;28;20650;-64
2024/04/07 12:27:29;;;;;;;9.00;2.20;;;26.80;81.00;;;;;;5095030;28;20230;-64
2024/04/07 12:29:56;;;;;;;6.05;3.42;;;27.20;80.50;;;;;;5094719;28;20204;-63
2024/04/07 12:32:21;;;;;;;6.90;1.80;;;27.70;79.20;;;;;;5094396;28;20303;-65
2024/04/07 12:34:49;;;;;;;6.22;1.80;;;28.10;78.40;;;;;;5094774;28;20291;-63
2024/04/07 12:37:15;;;;;;;7.35;1.88;;;28.30;77.00;;;;;;5094935;28;20585;-64
2024/04/07 12:39:42;;;;;;;10.13;2.60;;;28.10;77.50;;;;;;5096539;28;20208;-64
2024/04/07 12:42:08;;;;;;;4.40;1.95;;;28.00;78.00;;;;;;5097626;28;20224;-64
2024/04/07 12:44:34;;;;;;;6.80;1.80;;;27.90;78.00;;;;;;5096533;28;20200;-62
2024/04/07 12:47:00;;;;;;;13.90;2.83;;;27.90;78.10;;;;;;5097289;28;20204;-63